メインページ
METAR-TAF:

METAR-TAF

空港 :

ケベック・シティー, ケベック州, カナダ

ケベック・ジャン・ルサージ国際空港

緯度: 46-48N, 経度: 071-23W, 海抜: 70m

現時点の気象観測

当レポートは43分前の19:00(UTC)に作成
西の風 7kt、西から北西の間で変化する
気温 2°C
湿度 29%
気圧 1027 hPa
視程: 48.3km
高度23000ftの雲はほとんどない

METAR: CYQB 251900Z 28007KT 260V320 30SM FEW230 02/M14 A3032 RMK CI1 CI TR SLP272

時間: 15:43 (19:43 UTC)

予報

当レポートは2時間5分前の17:38(UTC)に作成
予報は25日の 18時(UTC)から 26日の 18時(UTC)まで有効
北/北西の風 6kt
視程: 10km
高度4000ftの雲はほとんどない
高度23000ftの千切れ雲あり
25日の 2000時(UTC)から
北西の風 10kt
視程: 10km
晴天
25日の 23時(UTC)から 26日の 01時(UTC)まで徐々に
北/北西の風 6kt

TAF: CYQB 251738Z 2518/2618 33006KT P6SM FEW040 BKN230 FM252000 31010KT P6SM SKC BECMG 2523/2601 33006KT RMK NXT FCST BY 260000Z

4,000以上の空港の気象観測と天気予報(METAR報とTAF報)

利用可能な観測所は地図上に黄色い丸と赤い丸で示す。

丸の上にカーソルを重ねると観測所名を参照できる。

次にクリックすると気象観測と天気予報を参照できる。

マップの切り替え:黒色「×」印の緑ボタンをクリックして拡大、「-」印の緑ボタンをクリックして縮小、緑色の三角印をクリックして隣りの地図に切り替え


METAR-TAF: